Time;durP1;ratioP1;P1;durP2;ratioP2;P2;SDS_P1;SDS_P2;PMS_P1;PMS_P2;Temp;Humidity;BMP_temperature;BMP_pressure;BME280_temperature;BME280_humidity;BME280_pressure;Samples;Min_cycle;Max_cycle;Signal;HPM_P1;HPM_P2
2023/09/07 00:02:20;;;;;;;4.00;2.83;;;18.20;99.90;;;;;;4958053;28;20543;-66
2023/09/07 00:04:45;;;;;;;5.28;3.30;;;18.20;99.90;;;;;;4960509;28;20046;-67
2023/09/07 00:07:12;;;;;;;7.00;3.38;;;18.20;99.90;;;;;;4968391;28;20074;-67
2023/09/07 00:09:37;;;;;;;5.40;2.80;;;18.20;99.90;;;;;;4967957;28;20031;-67
2023/09/07 00:12:03;;;;;;;4.35;2.88;;;18.20;99.90;;;;;;4963429;28;20031;-66
2023/09/07 00:14:29;;;;;;;9.07;3.83;;;18.20;99.90;;;;;;4962491;28;20485;-66
2023/09/07 00:16:54;;;;;;;5.82;3.42;;;18.20;99.90;;;;;;4962963;28;20038;-66
2023/09/07 00:19:20;;;;;;;4.68;3.17;;;18.20;99.90;;;;;;4964336;28;20042;-67
2023/09/07 00:21:45;;;;;;;13.05;3.00;;;18.20;99.90;;;;;;4968809;28;20031;-65
2023/09/07 00:24:11;;;;;;;3.75;2.75;;;18.20;99.90;;;;;;4969833;28;20031;-66
2023/09/07 00:26:36;;;;;;;5.70;3.17;;;18.20;99.90;;;;;;4962086;28;20054;-65
2023/09/07 00:29:02;;;;;;;8.35;3.17;;;18.20;99.90;;;;;;4965717;28;20035;-66
2023/09/07 00:31:28;;;;;;;4.22;2.60;;;18.20;99.90;;;;;;4968432;28;20041;-66
2023/09/07 00:33:53;;;;;;;6.68;2.67;;;18.20;99.90;;;;;;4962728;28;20118;-66
2023/09/07 00:36:19;;;;;;;4.40;3.00;;;18.20;99.90;;;;;;4967606;28;20035;-66
2023/09/07 00:38:44;;;;;;;6.07;2.78;;;18.20;99.90;;;;;;4967225;28;20035;-65
2023/09/07 00:41:11;;;;;;;7.28;3.47;;;18.20;99.90;;;;;;4968685;28;20093;-66
2023/09/07 00:43:39;;;;;;;3.47;2.58;;;18.20;99.90;;;;;;4970294;28;20026;-66
2023/09/07 00:46:05;;;;;;;4.55;3.17;;;18.20;99.90;;;;;;4938165;28;20130;-66
2023/09/07 00:48:31;;;;;;;4.90;3.13;;;18.20;99.90;;;;;;4977882;28;20117;-66
2023/09/07 00:50:56;;;;;;;7.47;3.13;;;18.20;99.90;;;;;;4979242;28;20045;-66
2023/09/07 00:53:24;;;;;;;6.40;2.92;;;18.30;99.90;;;;;;4984770;28;20027;-66
2023/09/07 00:55:50;;;;;;;6.40;2.80;;;18.30;99.90;;;;;;4973110;28;20049;-66
2023/09/07 00:58:16;;;;;;;5.28;2.28;;;18.20;99.90;;;;;;4989836;28;20065;-67
2023/09/07 01:00:41;;;;;;;5.10;2.75;;;18.20;99.90;;;;;;4981998;28;20035;-68
2023/09/07 01:03:07;;;;;;;4.97;2.60;;;18.20;99.90;;;;;;4989809;28;20442;-66
2023/09/07 01:05:46;;;;;;;3.97;2.80;;;18.20;99.90;;;;;;4976556;28;20034;-66
2023/09/07 01:08:26;;;;;;;5.75;3.63;;;18.20;99.90;;;;;;4971930;28;20038;-66
2023/09/07 01:10:51;;;;;;;6.90;2.90;;;18.20;99.90;;;;;;4983314;28;20022;-68
2023/09/07 01:13:19;;;;;;;3.85;2.47;;;18.20;99.90;;;;;;4976995;28;20097;-66
2023/09/07 01:15:44;;;;;;;5.93;2.97;;;18.20;99.90;;;;;;4981704;28;20105;-66
2023/09/07 01:18:11;;;;;;;4.30;2.83;;;18.20;99.90;;;;;;4978227;28;20453;-66
2023/09/07 01:20:38;;;;;;;7.10;2.47;;;18.10;99.90;;;;;;4969983;28;20054;-66
2023/09/07 01:23:04;;;;;;;6.63;3.20;;;18.10;99.90;;;;;;4967948;28;20037;-67
2023/09/07 01:25:32;;;;;;;5.88;2.75;;;18.10;99.90;;;;;;4968181;28;20042;-67
2023/09/07 01:27:58;;;;;;;3.88;2.83;;;18.00;99.90;;;;;;4961933;28;20023;-65
2023/09/07 01:30:25;;;;;;;4.88;2.80;;;18.00;99.90;;;;;;4968062;28;20078;-66
2023/09/07 01:32:51;;;;;;;3.85;2.70;;;17.90;99.90;;;;;;4968066;28;20029;-67
2023/09/07 01:35:18;;;;;;;5.50;3.60;;;17.90;99.90;;;;;;4968395;28;20026;-67
2023/09/07 01:37:43;;;;;;;4.50;2.97;;;17.80;99.90;;;;;;4969483;28;20027;-66
2023/09/07 01:40:10;;;;;;;6.18;2.85;;;17.80;99.90;;;;;;4968889;28;20118;-66
2023/09/07 01:42:35;;;;;;;3.80;2.65;;;17.80;99.90;;;;;;4967563;28;20066;-66
2023/09/07 01:45:01;;;;;;;4.53;3.05;;;17.70;99.90;;;;;;4966455;28;20069;-66
2023/09/07 01:47:26;;;;;;;5.05;3.13;;;17.60;99.90;;;;;;4968064;28;20026;-67
2023/09/07 01:49:52;;;;;;;4.53;3.03;;;17.50;99.90;;;;;;4968484;28;20097;-66
2023/09/07 01:52:17;;;;;;;4.15;3.03;;;17.40;99.90;;;;;;4968657;28;20420;-66
2023/09/07 01:54:43;;;;;;;4.72;2.83;;;17.40;99.90;;;;;;4968316;28;20031;-67
2023/09/07 01:57:09;;;;;;;7.40;4.28;;;17.40;99.90;;;;;;4965967;28;20031;-65
2023/09/07 01:59:34;;;;;;;2.97;2.25;;;17.40;99.90;;;;;;4969020;28;20023;-67
2023/09/07 02:02:00;;;;;;;4.20;2.78;;;17.40;99.90;;;;;;4965147;28;20026;-66
2023/09/07 02:04:25;;;;;;;4.80;3.20;;;17.50;99.90;;;;;;4967400;28;20086;-66
2023/09/07 02:06:51;;;;;;;4.80;2.60;;;17.50;99.90;;;;;;4969580;28;20647;-67
2023/09/07 02:09:16;;;;;;;4.10;2.78;;;17.50;99.90;;;;;;4966267;28;20031;-67
2023/09/07 02:11:42;;;;;;;4.53;2.75;;;17.50;99.90;;;;;;4964302;28;20106;-66
2023/09/07 02:14:08;;;;;;;4.65;2.92;;;17.60;99.90;;;;;;4955333;28;20070;-66
2023/09/07 02:16:34;;;;;;;5.30;3.20;;;17.60;99.90;;;;;;4968839;28;20023;-67
2023/09/07 02:19:03;;;;;;;6.18;2.80;;;17.70;99.90;;;;;;4963427;28;20031;-67
2023/09/07 02:21:29;;;;;;;6.88;3.45;;;17.70;99.90;;;;;;4965171;28;20027;-67
2023/09/07 02:23:54;;;;;;;4.90;2.92;;;17.70;99.90;;;;;;4966157;28;20471;-66
2023/09/07 02:26:20;;;;;;;9.95;4.55;;;17.60;99.90;;;;;;4968582;28;20046;-67
2023/09/07 02:28:45;;;;;;;4.05;3.22;;;17.60;99.90;;;;;;4962931;28;20031;-67
2023/09/07 02:31:11;;;;;;;7.05;2.90;;;17.40;99.90;;;;;;4967638;28;20471;-67
2023/09/07 02:33:37;;;;;;;4.15;2.88;;;17.40;99.90;;;;;;4969644;28;20483;-67
2023/09/07 02:36:02;;;;;;;5.20;2.97;;;17.30;99.90;;;;;;4962793;28;20031;-66
2023/09/07 02:38:28;;;;;;;4.53;2.67;;;17.20;99.90;;;;;;4968374;28;20031;-66
2023/09/07 02:40:56;;;;;;;5.70;3.50;;;17.20;99.90;;;;;;4969616;28;20110;-66
2023/09/07 02:43:22;;;;;;;3.70;2.70;;;17.10;99.90;;;;;;4969915;28;20034;-67
2023/09/07 02:45:50;;;;;;;5.20;3.00;;;17.10;99.90;;;;;;4965208;28;20050;-66
2023/09/07 02:48:15;;;;;;;5.88;3.20;;;17.00;99.90;;;;;;4966353;28;20054;-67
2023/09/07 02:50:42;;;;;;;3.40;3.00;;;16.90;99.90;;;;;;4964059;28;20748;-66
2023/09/07 02:53:08;;;;;;;4.53;2.70;;;16.90;99.90;;;;;;4967457;28;20023;-66
2023/09/07 02:55:34;;;;;;;10.98;3.03;;;16.90;99.90;;;;;;4964855;28;20037;-66
2023/09/07 02:58:03;;;;;;;7.07;3.38;;;17.00;99.90;;;;;;4970555;28;20086;-67
2023/09/07 03:00:28;;;;;;;4.75;2.92;;;17.00;99.90;;;;;;4977328;28;20030;-66
2023/09/07 03:02:54;;;;;;;8.43;3.10;;;17.00;99.90;;;;;;4964277;28;20609;-66
2023/09/07 03:05:20;;;;;;;5.38;3.40;;;17.00;99.90;;;;;;4964957;28;20073;-66
2023/09/07 03:07:47;;;;;;;5.65;2.85;;;17.10;99.90;;;;;;4966676;28;20038;-66
2023/09/07 03:10:13;;;;;;;4.20;3.30;;;17.10;99.90;;;;;;4965508;28;20027;-67
2023/09/07 03:12:39;;;;;;;5.05;2.78;;;17.10;99.90;;;;;;4971520;28;20090;-66
2023/09/07 03:15:05;;;;;;;6.78;4.18;;;17.10;99.90;;;;;;4965658;28;20030;-67
2023/09/07 03:17:31;;;;;;;4.35;2.97;;;17.20;99.90;;;;;;4968659;28;20023;-67
2023/09/07 03:19:58;;;;;;;7.05;2.92;;;17.30;99.90;;;;;;4967593;28;20038;-66
2023/09/07 03:22:23;;;;;;;3.17;2.55;;;17.30;99.90;;;;;;4964961;28;20066;-66
2023/09/07 03:24:52;;;;;;;5.57;2.78;;;17.30;99.90;;;;;;4968067;28;20066;-66
2023/09/07 03:27:18;;;;;;;5.57;3.03;;;17.30;99.90;;;;;;4961784;28;20039;-65
2023/09/07 03:29:46;;;;;;;8.07;2.72;;;17.30;99.90;;;;;;4969776;28;20026;-70
2023/09/07 03:32:12;;;;;;;4.30;2.80;;;17.30;99.90;;;;;;4965966;28;20023;-66
2023/09/07 03:34:37;;;;;;;7.35;2.88;;;17.40;99.90;;;;;;4963039;28;20027;-67
2023/09/07 03:37:05;;;;;;;5.57;2.97;;;17.40;99.90;;;;;;4971652;28;20137;-66
2023/09/07 03:39:32;;;;;;;10.57;2.95;;;17.40;99.90;;;;;;4970319;28;20494;-66
2023/09/07 03:41:57;;;;;;;7.97;3.10;;;17.30;99.90;;;;;;4972308;28;20814;-66
2023/09/07 03:44:23;;;;;;;4.35;2.58;;;17.20;99.90;;;;;;4965447;28;20070;-67
2023/09/07 03:46:48;;;;;;;4.13;2.67;;;17.20;99.90;;;;;;4972105;28;20103;-66
2023/09/07 03:49:14;;;;;;;6.97;3.58;;;17.20;99.90;;;;;;4968414;28;20042;-66
2023/09/07 03:51:39;;;;;;;10.10;3.55;;;17.10;99.90;;;;;;4959493;28;20468;-66
2023/09/07 03:54:05;;;;;;;4.93;3.03;;;17.10;99.90;;;;;;4971727;28;20031;-67
2023/09/07 03:56:31;;;;;;;6.95;3.20;;;17.10;99.90;;;;;;4965685;28;20035;-66
2023/09/07 03:58:56;;;;;;;4.15;2.90;;;17.00;99.90;;;;;;4971154;28;20062;-66
2023/09/07 04:01:22;;;;;;;8.20;3.40;;;16.90;99.90;;;;;;4969019;28;20109;-65
2023/09/07 04:03:48;;;;;;;4.65;2.88;;;16.80;99.90;;;;;;4972973;28;20034;-66
2023/09/07 04:06:13;;;;;;;8.63;2.95;;;16.80;99.90;;;;;;4968896;28;20050;-66
2023/09/07 04:08:39;;;;;;;4.32;2.83;;;16.70;99.90;;;;;;4970438;28;20562;-66
2023/09/07 04:11:05;;;;;;;5.93;3.17;;;16.60;99.90;;;;;;4970939;28;20038;-66
2023/09/07 04:13:32;;;;;;;5.07;3.15;;;16.60;99.90;;;;;;4963233;28;20385;-66
2023/09/07 04:15:57;;;;;;;6.20;3.47;;;16.60;99.90;;;;;;4970709;28;20026;-66
2023/09/07 04:18:23;;;;;;;7.53;3.40;;;16.60;99.90;;;;;;4967784;28;20065;-66
2023/09/07 04:20:49;;;;;;;4.93;3.00;;;16.50;99.90;;;;;;4966165;28;20037;-65
2023/09/07 04:23:14;;;;;;;3.00;2.40;;;16.50;99.90;;;;;;4968167;28;20034;-66
2023/09/07 04:25:40;;;;;;;8.00;2.97;;;16.50;99.90;;;;;;4970715;28;20077;-66
2023/09/07 04:28:06;;;;;;;3.75;2.80;;;16.50;99.90;;;;;;4964153;28;20038;-68
2023/09/07 04:30:33;;;;;;;6.10;3.10;;;16.50;99.90;;;;;;4967643;28;20150;-64
2023/09/07 04:32:58;;;;;;;6.93;3.40;;;16.50;99.90;;;;;;4969750;28;20046;-66
2023/09/07 04:35:30;;;;;;;6.50;3.40;;;16.50;99.90;;;;;;4969448;28;20022;-66
2023/09/07 04:37:56;;;;;;;4.05;3.10;;;16.60;99.90;;;;;;4968871;28;20113;-65
2023/09/07 04:40:22;;;;;;;4.57;2.35;;;16.60;99.90;;;;;;4969918;28;20452;-67
2023/09/07 04:42:48;;;;;;;6.28;3.22;;;16.60;99.90;;;;;;4969860;28;20556;-66
2023/09/07 04:45:13;;;;;;;6.57;2.60;;;16.60;99.90;;;;;;4967517;28;20027;-65
2023/09/07 04:47:39;;;;;;;4.45;3.00;;;16.70;99.90;;;;;;4964592;28;20097;-66
2023/09/07 04:50:06;;;;;;;6.00;3.03;;;16.60;99.90;;;;;;4958269;28;20804;-66
2023/09/07 04:52:32;;;;;;;4.93;3.00;;;16.60;99.90;;;;;;4961314;28;20026;-65
2023/09/07 04:54:57;;;;;;;4.05;2.55;;;16.60;99.90;;;;;;4965759;28;20023;-66
2023/09/07 04:57:23;;;;;;;6.05;2.85;;;16.60;99.90;;;;;;4967781;28;20113;-67
2023/09/07 04:59:49;;;;;;;17.23;3.00;;;16.60;99.90;;;;;;4966673;28;20034;-65
2023/09/07 05:02:14;;;;;;;4.20;2.80;;;16.60;99.90;;;;;;4965237;28;20555;-66
2023/09/07 05:04:40;;;;;;;6.32;2.70;;;16.60;99.90;;;;;;4962203;28;20026;-65
2023/09/07 05:07:05;;;;;;;5.65;2.90;;;16.60;99.90;;;;;;4964901;28;20098;-65
2023/09/07 05:09:31;;;;;;;9.60;2.67;;;16.60;99.90;;;;;;4961968;28;20027;-65
2023/09/07 05:11:57;;;;;;;4.85;3.03;;;16.60;99.90;;;;;;4963973;28;20023;-65
2023/09/07 05:14:25;;;;;;;4.13;2.75;;;16.50;99.90;;;;;;4966048;28;20030;-67
2023/09/07 05:16:51;;;;;;;5.43;3.05;;;16.50;99.90;;;;;;4963092;28;20034;-66
2023/09/07 05:19:17;;;;;;;4.70;3.13;;;16.40;99.90;;;;;;4964587;28;20396;-67
2023/09/07 05:21:42;;;;;;;7.63;3.47;;;16.40;99.90;;;;;;4963637;28;20408;-67
2023/09/07 05:24:08;;;;;;;5.18;3.05;;;16.40;99.90;;;;;;4966311;28;20078;-66
2023/09/07 05:26:34;;;;;;;5.03;2.78;;;16.30;99.90;;;;;;4969780;28;20027;-66
2023/09/07 05:28:59;;;;;;;7.13;3.30;;;16.30;99.90;;;;;;4959196;28;20039;-65
2023/09/07 05:31:25;;;;;;;4.85;3.10;;;16.30;99.90;;;;;;4967688;28;20034;-65
2023/09/07 05:33:51;;;;;;;7.15;2.70;;;16.30;99.90;;;;;;4968510;28;20027;-66
2023/09/07 05:36:17;;;;;;;5.05;3.47;;;16.40;99.90;;;;;;4966885;28;20023;-66
2023/09/07 05:38:43;;;;;;;6.20;3.72;;;16.40;99.90;;;;;;4966429;28;20747;-66
2023/09/07 05:41:08;;;;;;;5.28;3.55;;;16.40;99.90;;;;;;4966975;28;20031;-63
2023/09/07 05:43:34;;;;;;;4.28;3.08;;;16.50;99.90;;;;;;4964258;28;20031;-66
2023/09/07 05:45:59;;;;;;;4.80;2.80;;;16.60;99.90;;;;;;4969585;28;20546;-66
2023/09/07 05:48:25;;;;;;;4.45;3.50;;;16.70;99.90;;;;;;4968861;28;20030;-65
2023/09/07 05:50:51;;;;;;;4.28;2.92;;;16.80;99.90;;;;;;4970249;28;20038;-66
2023/09/07 05:53:18;;;;;;;3.88;2.97;;;16.90;99.90;;;;;;4970860;28;20034;-65
2023/09/07 05:55:44;;;;;;;5.70;2.70;;;17.10;99.90;;;;;;4966994;28;20547;-66
2023/09/07 05:58:10;;;;;;;4.93;2.97;;;17.20;99.90;;;;;;4968991;28;20034;-66
2023/09/07 06:00:37;;;;;;;6.38;3.30;;;17.40;99.90;;;;;;4966540;28;20030;-67
2023/09/07 06:03:03;;;;;;;6.32;2.92;;;17.70;99.90;;;;;;4967256;28;20027;-66
2023/09/07 06:05:28;;;;;;;6.32;3.08;;;18.30;99.90;;;;;;4969576;28;20041;-65
2023/09/07 06:07:54;;;;;;;4.93;2.85;;;18.90;99.90;;;;;;4970556;28;20528;-63
2023/09/07 06:10:20;;;;;;;7.20;2.80;;;19.30;99.90;;;;;;4967304;28;20034;-66
2023/09/07 06:12:45;;;;;;;3.97;2.83;;;19.80;99.90;;;;;;4962215;28;20066;-66
2023/09/07 06:15:11;;;;;;;4.00;3.00;;;20.00;99.90;;;;;;4968415;28;20057;-63
2023/09/07 06:17:36;;;;;;;5.43;2.97;;;19.90;99.90;;;;;;4964678;28;20058;-66
2023/09/07 06:20:03;;;;;;;4.80;2.95;;;19.90;99.90;;;;;;4969401;28;20058;-66
2023/09/07 06:22:28;;;;;;;5.45;2.97;;;19.80;99.90;;;;;;4970208;28;20031;-65
2023/09/07 06:24:54;;;;;;;4.13;3.08;;;19.80;99.90;;;;;;4970661;28;20030;-65
2023/09/07 06:27:20;;;;;;;6.20;2.97;;;19.60;99.90;;;;;;4969060;28;20055;-66
2023/09/07 06:29:45;;;;;;;4.85;2.53;;;19.70;99.90;;;;;;4963090;28;20039;-66
2023/09/07 06:32:11;;;;;;;6.50;3.03;;;19.80;99.90;;;;;;4969222;28;20030;-66
2023/09/07 06:34:36;;;;;;;4.80;3.05;;;19.80;99.90;;;;;;4970839;28;20027;-66
2023/09/07 06:37:02;;;;;;;4.10;2.90;;;19.80;99.90;;;;;;4970981;28;20034;-66
2023/09/07 06:39:27;;;;;;;4.30;2.50;;;19.90;99.90;;;;;;4972599;28;20534;-67
2023/09/07 06:41:53;;;;;;;4.07;2.80;;;19.90;99.90;;;;;;4973846;28;20094;-65
2023/09/07 06:44:19;;;;;;;7.25;3.08;;;19.90;99.90;;;;;;4969701;28;20035;-65
2023/09/07 06:46:44;;;;;;;5.43;2.50;;;20.00;99.90;;;;;;4949862;28;20062;-66
2023/09/07 06:49:10;;;;;;;7.28;3.00;;;20.20;99.90;;;;;;4966839;28;20050;-65
2023/09/07 06:51:35;;;;;;;5.30;2.75;;;20.30;99.90;;;;;;4962609;28;20030;-66
2023/09/07 06:54:01;;;;;;;5.03;2.42;;;20.60;99.90;;;;;;4968397;28;20495;-66
2023/09/07 06:56:26;;;;;;;4.65;3.05;;;21.20;99.90;;;;;;4966808;28;20031;-67
2023/09/07 06:58:52;;;;;;;9.63;2.40;;;22.30;99.90;;;;;;4968186;28;20034;-66
2023/09/07 07:01:19;;;;;;;3.85;2.55;;;24.00;99.60;;;;;;4969172;28;20023;-66
2023/09/07 07:03:44;;;;;;;6.63;2.63;;;25.80;96.40;;;;;;4965821;28;21352;-66
2023/09/07 07:06:10;;;;;;;2.83;2.08;;;27.00;93.80;;;;;;4965693;28;20043;-66
2023/09/07 07:08:35;;;;;;;3.60;1.88;;;28.00;92.50;;;;;;4965621;28;20037;-66
2023/09/07 07:11:01;;;;;;;7.70;2.88;;;28.40;90.50;;;;;;4968796;28;20066;-67
2023/09/07 07:13:27;;;;;;;5.38;2.17;;;28.70;89.90;;;;;;4968276;28;20051;-66
2023/09/07 07:15:52;;;;;;;7.00;2.40;;;29.40;88.40;;;;;;4969434;28;20026;-67
2023/09/07 07:18:18;;;;;;;3.20;2.17;;;29.90;86.00;;;;;;4961437;28;20114;-67
2023/09/07 07:20:44;;;;;;;3.70;2.40;;;30.10;85.00;;;;;;4961455;28;20062;-67
2023/09/07 07:23:11;;;;;;;6.03;2.15;;;30.20;83.80;;;;;;4963944;28;20038;-64
2023/09/07 07:25:37;;;;;;;3.47;2.42;;;31.20;81.30;;;;;;4966147;28;20034;-66
2023/09/07 07:28:05;;;;;;;4.70;2.30;;;31.00;81.50;;;;;;4964549;28;20035;-67
2023/09/07 07:30:36;;;;;;;4.65;2.40;;;31.20;83.70;;;;;;4968876;28;20027;-67
2023/09/07 07:33:03;;;;;;;4.72;2.50;;;30.60;80.90;;;;;;4966938;28;20462;-67
2023/09/07 07:35:29;;;;;;;3.63;2.22;;;30.50;83.00;;;;;;4965863;28;20023;-68
2023/09/07 07:37:55;;;;;;;3.88;2.22;;;30.70;81.60;;;;;;4966813;28;20573;-67
2023/09/07 07:40:20;;;;;;;7.40;2.47;;;31.50;80.60;;;;;;4966712;28;20035;-67
2023/09/07 07:42:47;;;;;;;7.05;2.30;;;31.50;79.60;;;;;;4964059;28;20062;-67
2023/09/07 07:45:13;;;;;;;3.38;2.17;;;31.30;78.90;;;;;;4967781;28;20038;-66
2023/09/07 07:47:40;;;;;;;3.55;2.20;;;31.40;81.60;;;;;;4955808;28;20087;-67
2023/09/07 07:50:06;;;;;;;3.40;2.38;;;31.30;77.60;;;;;;4968526;28;20106;-65
2023/09/07 07:52:32;;;;;;;7.85;2.58;;;31.20;80.60;;;;;;4968663;28;20015;-66
2023/09/07 07:54:58;;;;;;;2.95;2.22;;;31.60;80.30;;;;;;4966123;28;20038;-66
2023/09/07 07:57:23;;;;;;;3.78;2.67;;;32.60;78.20;;;;;;4965971;28;21249;-64
2023/09/07 07:59:49;;;;;;;6.13;2.65;;;33.30;76.90;;;;;;4966380;28;20082;-64
2023/09/07 08:02:14;;;;;;;3.08;1.90;;;32.20;76.30;;;;;;4961113;28;20154;-65
2023/09/07 08:04:40;;;;;;;4.00;2.15;;;32.50;75.70;;;;;;4965669;28;20042;-65
2023/09/07 08:07:08;;;;;;;4.35;1.90;;;32.50;77.70;;;;;;4965692;28;20034;-66
2023/09/07 08:09:34;;;;;;;4.30;2.50;;;32.30;77.20;;;;;;4966410;28;20972;-65
2023/09/07 08:12:08;;;;;;;7.78;2.65;;;32.30;76.70;;;;;;4967276;28;20035;-65
2023/09/07 08:14:35;;;;;;;3.72;2.50;;;32.50;76.60;;;;;;4960041;28;20126;-65
2023/09/07 08:17:01;;;;;;;3.03;2.60;;;32.30;77.60;;;;;;4967447;28;20881;-65
2023/09/07 08:19:27;;;;;;;10.43;2.50;;;32.60;77.70;;;;;;4965869;28;20026;-65
2023/09/07 08:21:53;;;;;;;3.15;2.33;;;32.50;77.70;;;;;;4964513;28;20155;-65
2023/09/07 08:24:19;;;;;;;5.00;2.20;;;32.90;76.60;;;;;;4967450;28;20117;-65
2023/09/07 08:26:44;;;;;;;7.07;2.22;;;32.90;77.40;;;;;;4963830;28;20054;-65
2023/09/07 08:29:10;;;;;;;5.63;2.30;;;33.70;76.90;;;;;;4961840;28;20069;-64
2023/09/07 08:31:40;;;;;;;4.75;2.47;;;33.60;75.80;;;;;;4963979;28;20035;-65
2023/09/07 08:34:09;;;;;;;6.43;2.60;;;33.40;75.90;;;;;;4961868;28;20034;-65
2023/09/07 08:36:34;;;;;;;5.43;2.30;;;34.00;74.90;;;;;;4965651;28;20022;-65
2023/09/07 08:39:12;;;;;;;6.88;2.20;;;33.60;74.90;;;;;;4967459;28;20038;-65
2023/09/07 08:41:43;;;;;;;3.28;2.20;;;33.30;74.70;;;;;;4964333;28;20026;-65
2023/09/07 08:44:16;;;;;;;2.70;2.13;;;33.10;74.30;;;;;;4961968;28;20023;-65
2023/09/07 08:46:43;;;;;;;6.18;2.75;;;33.30;75.20;;;;;;4958650;28;20551;-66
2023/09/07 08:49:11;;;;;;;3.08;2.28;;;32.80;75.60;;;;;;4961128;28;20121;-65
2023/09/07 08:51:37;;;;;;;3.45;2.55;;;32.90;76.80;;;;;;4966113;28;20480;-65
2023/09/07 08:54:04;;;;;;;3.78;2.65;;;33.10;73.80;;;;;;4957152;28;20041;-65
2023/09/07 08:56:29;;;;;;;5.03;2.58;;;33.40;75.00;;;;;;4961439;28;20566;-65
2023/09/07 08:58:55;;;;;;;6.47;2.30;;;33.30;75.60;;;;;;4963264;28;20039;-65
2023/09/07 09:01:21;;;;;;;3.83;2.10;;;33.70;74.80;;;;;;4961408;28;20031;-65
2023/09/07 09:03:48;;;;;;;4.30;2.08;;;33.50;73.60;;;;;;4958170;28;20023;-65
2023/09/07 09:06:19;;;;;;;2.65;2.00;;;33.30;76.10;;;;;;4958427;28;20428;-66
2023/09/07 09:08:48;;;;;;;5.32;2.22;;;33.50;76.50;;;;;;4958838;28;20054;-69
2023/09/07 09:11:14;;;;;;;4.07;2.40;;;33.70;74.00;;;;;;4958282;28;20440;-66
2023/09/07 09:13:41;;;;;;;3.83;2.58;;;33.60;76.00;;;;;;4959522;28;20082;-65
2023/09/07 09:16:06;;;;;;;4.50;2.20;;;33.20;76.50;;;;;;4977835;28;20026;-65
2023/09/07 09:18:32;;;;;;;5.88;2.33;;;33.60;75.60;;;;;;4964773;28;20411;-65
2023/09/07 09:21:01;;;;;;;5.50;2.28;;;33.80;75.00;;;;;;4965274;28;20027;-64
2023/09/07 09:23:34;;;;;;;4.25;2.53;;;33.80;74.20;;;;;;4953823;28;20045;-64
2023/09/07 09:26:01;;;;;;;5.00;2.67;;;33.40;74.00;;;;;;4965285;28;20031;-66
2023/09/07 09:28:31;;;;;;;3.22;2.45;;;33.20;75.00;;;;;;4961420;28;20023;-65
2023/09/07 09:30:57;;;;;;;6.00;2.10;;;32.40;76.10;;;;;;4959382;28;20523;-65
2023/09/07 09:33:23;;;;;;;6.57;2.53;;;32.50;78.70;;;;;;4961155;28;20027;-66
2023/09/07 09:35:50;;;;;;;3.00;2.42;;;32.80;76.40;;;;;;4960625;28;20034;-65
2023/09/07 09:38:16;;;;;;;6.30;2.67;;;32.90;75.20;;;;;;4959809;28;20592;-65
2023/09/07 09:40:42;;;;;;;7.40;2.63;;;33.00;75.90;;;;;;4965559;28;20057;-65
2023/09/07 09:43:08;;;;;;;4.43;2.35;;;32.70;75.20;;;;;;4963532;28;20480;-65
2023/09/07 09:45:35;;;;;;;4.03;2.13;;;32.80;77.00;;;;;;4964921;28;20042;-65
2023/09/07 09:48:03;;;;;;;4.90;2.28;;;33.30;75.50;;;;;;4955709;28;20070;-66
2023/09/07 09:50:28;;;;;;;4.43;2.03;;;33.50;76.50;;;;;;4965776;28;20086;-66
2023/09/07 09:52:54;;;;;;;5.53;2.40;;;33.10;76.70;;;;;;4965600;28;20439;-66
2023/09/07 09:55:21;;;;;;;3.53;2.42;;;32.90;77.70;;;;;;4977810;28;20055;-66
2023/09/07 09:57:47;;;;;;;4.28;2.10;;;32.20;77.50;;;;;;4964046;28;20043;-65
2023/09/07 10:00:25;;;;;;;5.65;2.25;;;32.00;79.40;;;;;;4966020;28;20034;-65
2023/09/07 10:03:32;;;;;;;3.00;2.17;;;31.70;78.30;;;;;;4979005;28;20054;-65
2023/09/07 10:06:18;;;;;;;6.45;2.30;;;31.40;78.90;;;;;;4907693;29;20060;-65
2023/09/07 10:09:01;;;;;;;7.15;2.83;;;31.00;79.60;;;;;;4891627;29;20036;-65
2023/09/07 10:11:31;;;;;;;5.35;2.40;;;30.70;79.50;;;;;;4952032;28;20408;-65
2023/09/07 10:13:58;;;;;;;3.30;2.50;;;30.40;80.80;;;;;;5003064;23;20064;-68
2023/09/07 10:16:24;;;;;;;4.07;2.67;;;30.60;82.60;;;;;;4971855;28;20491;-65
2023/09/07 10:18:49;;;;;;;4.07;2.50;;;30.30;83.20;;;;;;4974363;28;20042;-65
2023/09/07 10:21:15;;;;;;;3.60;2.03;;;30.40;83.10;;;;;;4978838;28;20165;-64
2023/09/07 10:23:42;;;;;;;5.53;2.60;;;30.30;82.70;;;;;;4978764;28;20034;-65
2023/09/07 10:26:16;;;;;;;5.07;2.65;;;30.20;83.20;;;;;;4979444;28;20080;-66
2023/09/07 10:28:43;;;;;;;4.53;2.63;;;30.40;84.10;;;;;;4979423;28;20412;-65
2023/09/07 10:31:19;;;;;;;8.95;2.83;;;30.30;80.80;;;;;;4980203;28;20065;-66
2023/09/07 10:33:46;;;;;;;3.72;2.55;;;30.00;81.40;;;;;;4993413;28;20493;-63
2023/09/07 10:36:41;;;;;;;5.82;3.03;;;29.70;82.10;;;;;;4978139;28;20072;-66
2023/09/07 10:39:07;;;;;;;3.60;2.53;;;29.70;82.00;;;;;;4975335;28;20368;-66
2023/09/07 10:41:44;;;;;;;3.88;2.25;;;29.50;82.60;;;;;;4979634;28;20032;-65
2023/09/07 10:44:13;;;;;;;4.28;3.20;;;29.40;83.70;;;;;;4979854;28;20061;-69
2023/09/07 10:46:39;;;;;;;5.47;2.38;;;29.60;85.40;;;;;;4972910;28;20065;-66
2023/09/07 10:49:09;;;;;;;5.25;2.88;;;29.70;85.00;;;;;;4978692;28;20396;-66
2023/09/07 10:51:42;;;;;;;4.45;2.72;;;29.70;83.90;;;;;;4980445;28;20157;-67
2023/09/07 10:54:18;;;;;;;3.75;2.80;;;29.70;85.70;;;;;;4980055;28;20081;-65
2023/09/07 10:56:45;;;;;;;5.63;2.30;;;29.70;85.30;;;;;;4979983;28;20037;-65
2023/09/07 10:59:12;;;;;;;3.85;2.33;;;29.70;85.00;;;;;;4978467;28;20027;-61
2023/09/07 11:01:38;;;;;;;5.57;2.35;;;29.50;81.90;;;;;;4982681;28;20762;-66
2023/09/07 11:04:05;;;;;;;3.60;2.33;;;29.40;82.10;;;;;;4978550;28;20499;-65
2023/09/07 11:06:30;;;;;;;3.45;2.30;;;29.30;83.20;;;;;;4976929;28;20113;-65
2023/09/07 11:09:04;;;;;;;7.32;2.53;;;29.20;81.90;;;;;;4980319;28;20117;-64
2023/09/07 11:11:33;;;;;;;4.57;2.60;;;29.20;84.30;;;;;;4978765;28;20387;-65
2023/09/07 11:13:59;;;;;;;3.17;2.58;;;29.10;84.20;;;;;;4977893;28;20026;-65
2023/09/07 11:16:28;;;;;;;3.00;2.15;;;29.20;84.20;;;;;;4980506;28;20045;-66
2023/09/07 11:18:54;;;;;;;5.30;2.42;;;29.00;84.50;;;;;;4977831;28;20053;-64
2023/09/07 11:21:20;;;;;;;4.28;2.30;;;28.80;84.50;;;;;;4978782;28;20172;-65
2023/09/07 11:23:46;;;;;;;3.45;2.50;;;28.60;83.80;;;;;;4976905;28;20054;-65
2023/09/07 11:26:12;;;;;;;5.80;2.33;;;28.60;84.90;;;;;;4975676;28;20132;-65
2023/09/07 11:28:38;;;;;;;7.43;2.40;;;28.50;84.30;;;;;;4977592;28;20027;-65
2023/09/07 11:31:03;;;;;;;4.75;2.65;;;28.50;85.40;;;;;;4976245;28;20038;-66
2023/09/07 11:33:32;;;;;;;4.20;2.40;;;28.50;84.90;;;;;;4974840;28;20030;-63
2023/09/07 11:35:58;;;;;;;4.53;2.58;;;28.60;86.20;;;;;;4980337;28;20031;-65
2023/09/07 11:38:29;;;;;;;2.85;2.28;;;28.50;85.90;;;;;;4980556;28;20038;-66
2023/09/07 11:40:54;;;;;;;6.68;2.55;;;28.60;86.60;;;;;;4977658;28;20576;-66
2023/09/07 11:43:20;;;;;;;4.35;2.67;;;28.50;84.00;;;;;;4980643;28;20041;-65
2023/09/07 11:45:46;;;;;;;5.30;3.17;;;28.50;84.10;;;;;;4979503;28;20046;-65
2023/09/07 11:48:12;;;;;;;3.20;2.53;;;28.40;85.00;;;;;;4971253;28;20539;-65
2023/09/07 11:50:38;;;;;;;4.75;2.95;;;28.40;86.40;;;;;;4981051;28;20083;-65
2023/09/07 11:53:05;;;;;;;3.75;2.20;;;28.40;87.20;;;;;;4982141;28;20067;-65
2023/09/07 11:55:31;;;;;;;2.83;2.30;;;28.50;86.30;;;;;;4978277;28;20037;-60
2023/09/07 11:57:57;;;;;;;3.97;2.42;;;28.40;87.00;;;;;;4976621;28;20027;-64
2023/09/07 12:00:23;;;;;;;3.85;2.20;;;28.50;87.10;;;;;;4975282;28;20042;-66
2023/09/07 12:02:49;;;;;;;5.65;3.00;;;28.60;87.30;;;;;;4975717;28;20034;-65
2023/09/07 12:05:15;;;;;;;4.35;2.13;;;28.50;87.50;;;;;;4978717;28;20041;-65
2023/09/07 12:07:43;;;;;;;3.92;2.35;;;28.50;85.90;;;;;;4978457;28;20476;-66
2023/09/07 12:10:13;;;;;;;7.05;2.50;;;28.60;88.20;;;;;;4976576;28;20531;-66
2023/09/07 12:12:40;;;;;;;4.68;2.55;;;28.60;86.80;;;;;;4980433;28;20499;-65
2023/09/07 12:15:06;;;;;;;5.32;3.20;;;28.50;86.90;;;;;;4978687;28;20025;-65
2023/09/07 12:17:32;;;;;;;3.00;2.28;;;28.50;86.50;;;;;;4975661;28;20101;-65
2023/09/07 12:19:59;;;;;;;4.57;2.40;;;28.50;87.70;;;;;;4974784;28;20059;-66
2023/09/07 12:22:25;;;;;;;4.50;3.10;;;28.60;88.10;;;;;;4977509;28;20019;-65
2023/09/07 12:24:50;;;;;;;5.88;2.25;;;28.60;87.30;;;;;;4976182;28;20038;-65
2023/09/07 12:27:16;;;;;;;5.22;2.67;;;28.60;87.90;;;;;;4976704;28;20034;-63
2023/09/07 12:29:42;;;;;;;6.32;2.80;;;28.50;86.10;;;;;;4974294;28;20030;-64
2023/09/07 12:32:07;;;;;;;6.47;2.53;;;28.50;87.30;;;;;;4990742;28;20073;-64
2023/09/07 12:34:33;;;;;;;9.50;2.58;;;28.50;88.70;;;;;;4975984;28;20030;-66
2023/09/07 12:36:58;;;;;;;6.00;2.85;;;28.60;88.50;;;;;;4977256;28;20019;-64
2023/09/07 12:39:24;;;;;;;4.18;2.60;;;28.60;85.40;;;;;;4978306;28;20442;-64
2023/09/07 12:41:50;;;;;;;6.25;2.78;;;28.60;85.80;;;;;;4973368;28;20031;-65
2023/09/07 12:44:18;;;;;;;3.75;2.33;;;28.60;83.30;;;;;;4973940;28;20415;-66